Time;durP1;ratioP1;P1;durP2;ratioP2;P2;SDS_P1;SDS_P2;PMS_P1;PMS_P2;Temp;Humidity;BMP_temperature;BMP_pressure;BME280_temperature;BME280_humidity;BME280_pressure;Samples;Min_cycle;Max_cycle;Signal;HPM_P1;HPM_P2
2022/03/30 00:00:00;;;;;;;26.9;19.0;;;;;;;8.5;100.0;100550;;;;
2022/03/30 00:01:00;;;;;;;26.9;19.0;;;;;;;8.3;100.0;100550;;;;
2022/03/30 00:02:00;;;;;;;26.9;19.0;;;;;;;8.3;100.0;100550;;;;
2022/03/30 00:03:00;;;;;;;26.9;19.0;;;;;;;8.3;100.0;100550;;;;
2022/03/30 00:04:00;;;;;;;26.9;19.0;;;;;;;8.3;100.0;100550;;;;
2022/03/30 00:05:00;;;;;;;26.9;19.0;;;;;;;8.3;100.0;100550;;;;
2022/03/30 00:06:00;;;;;;;26.9;19.0;;;;;;;8.3;100.0;100550;;;;
2022/03/30 00:07:00;;;;;;;26.9;19.0;;;;;;;8.3;100.0;100550;;;;
2022/03/30 00:08:00;;;;;;;26.9;19.0;;;;;;;8.3;100.0;100550;;;;
2022/03/30 00:09:00;;;;;;;26.9;19.0;;;;;;;8.3;100.0;100540;;;;
2022/03/30 00:10:01;;;;;;;26.9;19.0;;;;;;;8.3;100.0;100540;;;;
2022/03/30 00:11:00;;;;;;;26.9;19.0;;;;;;;8.3;100.0;100540;;;;
2022/03/30 00:12:00;;;;;;;26.9;19.0;;;;;;;8.3;100.0;100540;;;;
2022/03/30 00:13:00;;;;;;;26.9;19.0;;;;;;;8.1;100.0;100530;;;;
2022/03/30 00:14:00;;;;;;;25.3;17.6;;;;;;;8.1;100.0;100530;;;;
2022/03/30 00:15:00;;;;;;;25.3;17.6;;;;;;;8.1;100.0;100530;;;;
2022/03/30 00:16:00;;;;;;;25.3;17.6;;;;;;;8.1;100.0;100530;;;;
2022/03/30 00:17:00;;;;;;;25.3;17.6;;;;;;;7.9;100.0;100540;;;;
2022/03/30 00:18:00;;;;;;;25.3;17.6;;;;;;;7.9;100.0;100540;;;;
2022/03/30 00:19:00;;;;;;;25.3;17.6;;;;;;;7.8;100.0;100540;;;;
2022/03/30 00:20:01;;;;;;;25.3;17.6;;;;;;;7.8;100.0;100540;;;;
2022/03/30 00:21:00;;;;;;;25.3;17.6;;;;;;;7.7;100.0;100530;;;;
2022/03/30 00:22:00;;;;;;;25.3;17.6;;;;;;;7.7;100.0;100530;;;;
2022/03/30 00:23:00;;;;;;;25.3;17.6;;;;;;;7.8;100.0;100540;;;;
2022/03/30 00:24:00;;;;;;;25.3;17.6;;;;;;;7.8;100.0;100540;;;;
2022/03/30 00:25:00;;;;;;;25.3;17.6;;;;;;;7.6;100.0;100530;;;;
2022/03/30 00:26:00;;;;;;;25.3;17.6;;;;;;;7.6;100.0;100530;;;;
2022/03/30 00:27:00;;;;;;;25.3;17.6;;;;;;;7.6;100.0;100540;;;;
2022/03/30 00:28:01;;;;;;;25.3;17.6;;;;;;;7.6;100.0;100540;;;;
2022/03/30 00:29:00;;;;;;;25.3;17.6;;;;;;;7.6;100.0;100540;;;;
2022/03/30 00:30:00;;;;;;;25.3;17.6;;;;;;;7.6;100.0;100540;;;;
2022/03/30 00:31:00;;;;;;;25.3;17.6;;;;;;;7.7;100.0;100540;;;;
2022/03/30 00:32:00;;;;;;;25.3;17.6;;;;;;;7.7;100.0;100540;;;;
2022/03/30 00:33:00;;;;;;;25.3;17.6;;;;;;;7.6;100.0;100540;;;;
2022/03/30 00:34:00;;;;;;;31.3;20.0;;;;;;;7.6;100.0;100540;;;;
2022/03/30 00:35:00;;;;;;;31.3;20.0;;;;;;;7.6;100.0;100530;;;;
2022/03/30 00:36:00;;;;;;;31.3;20.0;;;;;;;7.6;100.0;100530;;;;
2022/03/30 00:37:00;;;;;;;31.3;20.0;;;;;;;7.5;100.0;100530;;;;
2022/03/30 00:38:00;;;;;;;31.3;20.0;;;;;;;7.5;100.0;100530;;;;
2022/03/30 00:39:00;;;;;;;31.3;20.0;;;;;;;7.4;100.0;100530;;;;
2022/03/30 00:40:00;;;;;;;31.3;20.0;;;;;;;7.4;100.0;100530;;;;
2022/03/30 00:41:00;;;;;;;31.3;20.0;;;;;;;7.4;100.0;100530;;;;
2022/03/30 00:42:00;;;;;;;31.3;20.0;;;;;;;7.4;100.0;100530;;;;
2022/03/30 00:43:00;;;;;;;31.3;20.0;;;;;;;7.4;100.0;100530;;;;
2022/03/30 00:44:07;;;;;;;31.3;20.0;;;;;;;7.4;100.0;100530;;;;
2022/03/30 00:45:08;;;;;;;31.3;20.0;;;;;;;7.3;100.0;100530;;;;
2022/03/30 00:46:00;;;;;;;31.3;20.0;;;;;;;7.3;100.0;100530;;;;
2022/03/30 00:47:00;;;;;;;31.3;20.0;;;;;;;7.3;100.0;100520;;;;
2022/03/30 00:48:00;;;;;;;31.3;20.0;;;;;;;7.3;100.0;100520;;;;
2022/03/30 00:49:01;;;;;;;31.3;20.0;;;;;;;7.3;100.0;100530;;;;
2022/03/30 00:50:00;;;;;;;31.3;20.0;;;;;;;7.3;100.0;100530;;;;
2022/03/30 00:51:00;;;;;;;31.3;20.0;;;;;;;7.2;100.0;100520;;;;
2022/03/30 00:52:00;;;;;;;31.3;20.0;;;;;;;7.2;100.0;100520;;;;
2022/03/30 00:53:00;;;;;;;31.3;20.0;;;;;;;7.3;100.0;100520;;;;
2022/03/30 00:54:00;;;;;;;24.7;19.0;;;;;;;7.3;100.0;100520;;;;
2022/03/30 00:55:00;;;;;;;24.7;19.0;;;;;;;7.4;100.0;100520;;;;
2022/03/30 00:56:00;;;;;;;24.7;19.0;;;;;;;7.4;100.0;100520;;;;
2022/03/30 00:57:01;;;;;;;24.7;19.0;;;;;;;7.3;100.0;100530;;;;
2022/03/30 00:58:00;;;;;;;24.7;19.0;;;;;;;7.3;100.0;100530;;;;
2022/03/30 00:59:01;;;;;;;24.7;19.0;;;;;;;7.2;100.0;100520;;;;
2022/03/30 01:00:00;;;;;;;24.7;19.0;;;;;;;7.2;100.0;100520;;;;
2022/03/30 01:01:00;;;;;;;24.7;19.0;;;;;;;7.1;100.0;100520;;;;
2022/03/30 01:02:01;;;;;;;24.7;19.0;;;;;;;7.1;100.0;100520;;;;
2022/03/30 01:03:00;;;;;;;24.7;19.0;;;;;;;7.2;100.0;100520;;;;
2022/03/30 01:04:04;;;;;;;24.7;19.0;;;;;;;7.2;100.0;100520;;;;
2022/03/30 01:05:00;;;;;;;24.7;19.0;;;;;;;7.2;100.0;100520;;;;
2022/03/30 01:06:00;;;;;;;24.7;19.0;;;;;;;7.2;100.0;100520;;;;
2022/03/30 01:07:00;;;;;;;24.7;19.0;;;;;;;7.2;100.0;100520;;;;
2022/03/30 01:08:00;;;;;;;24.7;19.0;;;;;;;7.2;100.0;100520;;;;
2022/03/30 01:09:00;;;;;;;24.7;19.0;;;;;;;7.1;100.0;100520;;;;
2022/03/30 01:10:01;;;;;;;24.7;19.0;;;;;;;7.1;100.0;100520;;;;
2022/03/30 01:11:00;;;;;;;24.7;19.0;;;;;;;7.1;100.0;100510;;;;
2022/03/30 01:12:00;;;;;;;24.7;19.0;;;;;;;7.1;100.0;100510;;;;
2022/03/30 01:13:02;;;;;;;24.7;19.0;;;;;;;7.0;100.0;100510;;;;
2022/03/30 01:14:05;;;;;;;28.2;20.7;;;;;;;7.0;100.0;100510;;;;
2022/03/30 01:15:00;;;;;;;28.2;20.7;;;;;;;7.1;100.0;100510;;;;
2022/03/30 01:16:02;;;;;;;28.2;20.7;;;;;;;7.1;100.0;100510;;;;
2022/03/30 01:17:00;;;;;;;28.2;20.7;;;;;;;7.0;100.0;100510;;;;
2022/03/30 01:18:00;;;;;;;28.2;20.7;;;;;;;7.0;100.0;100510;;;;
2022/03/30 01:19:02;;;;;;;28.2;20.7;;;;;;;6.8;100.0;100510;;;;
2022/03/30 01:21:00;;;;;;;28.2;20.7;;;;;;;6.8;100.0;100510;;;;
2022/03/30 01:22:00;;;;;;;28.2;20.7;;;;;;;6.8;100.0;100510;;;;
2022/03/30 01:23:01;;;;;;;28.2;20.7;;;;;;;6.8;100.0;100510;;;;
2022/03/30 01:24:00;;;;;;;28.2;20.7;;;;;;;6.8;100.0;100510;;;;
2022/03/30 01:25:00;;;;;;;28.2;20.7;;;;;;;6.8;100.0;100510;;;;
2022/03/30 01:26:00;;;;;;;28.2;20.7;;;;;;;6.8;100.0;100510;;;;
2022/03/30 01:27:00;;;;;;;28.2;20.7;;;;;;;6.8;100.0;100500;;;;
2022/03/30 01:28:00;;;;;;;28.2;20.7;;;;;;;6.8;100.0;100500;;;;
2022/03/30 01:29:00;;;;;;;28.2;20.7;;;;;;;6.6;100.0;100500;;;;
2022/03/30 01:33:02;;;;;;;28.2;20.7;;;;;;;6.5;100.0;100500;;;;
2022/03/30 01:34:00;;;;;;;29.1;21.6;;;;;;;6.4;100.0;100500;;;;
2022/03/30 01:35:01;;;;;;;29.1;21.6;;;;;;;6.5;100.0;100500;;;;
2022/03/30 01:36:00;;;;;;;29.1;21.6;;;;;;;6.5;100.0;100500;;;;
2022/03/30 01:37:01;;;;;;;29.1;21.6;;;;;;;6.4;100.0;100500;;;;
2022/03/30 01:38:00;;;;;;;29.1;21.6;;;;;;;6.4;100.0;100500;;;;
2022/03/30 01:39:00;;;;;;;29.1;21.6;;;;;;;6.5;100.0;100500;;;;
2022/03/30 01:40:01;;;;;;;29.1;21.6;;;;;;;6.5;100.0;100500;;;;
2022/03/30 01:41:00;;;;;;;29.1;21.6;;;;;;;6.4;100.0;100490;;;;
2022/03/30 01:42:00;;;;;;;29.1;21.6;;;;;;;6.4;100.0;100490;;;;
2022/03/30 01:43:00;;;;;;;29.1;21.6;;;;;;;6.3;100.0;100490;;;;
2022/03/30 01:44:00;;;;;;;29.1;21.6;;;;;;;6.3;100.0;100490;;;;
2022/03/30 01:45:00;;;;;;;29.1;21.6;;;;;;;6.2;100.0;100490;;;;
2022/03/30 01:46:00;;;;;;;29.1;21.6;;;;;;;6.2;100.0;100490;;;;
2022/03/30 01:47:00;;;;;;;29.1;21.6;;;;;;;6.3;100.0;100480;;;;
2022/03/30 01:48:00;;;;;;;29.1;21.6;;;;;;;6.3;100.0;100480;;;;
2022/03/30 01:49:00;;;;;;;29.1;21.6;;;;;;;6.2;100.0;100480;;;;
2022/03/30 01:50:00;;;;;;;29.1;21.6;;;;;;;6.2;100.0;100480;;;;
2022/03/30 01:51:00;;;;;;;29.1;21.6;;;;;;;6.3;100.0;100480;;;;
2022/03/30 01:52:00;;;;;;;29.1;21.6;;;;;;;6.3;100.0;100480;;;;
2022/03/30 01:53:00;;;;;;;29.1;21.6;;;;;;;6.3;100.0;100480;;;;
2022/03/30 01:54:00;;;;;;;34.4;21.1;;;;;;;6.3;100.0;100480;;;;
2022/03/30 01:55:00;;;;;;;34.4;21.1;;;;;;;6.2;100.0;100480;;;;
2022/03/30 01:56:00;;;;;;;34.4;21.1;;;;;;;6.2;100.0;100480;;;;
2022/03/30 01:57:00;;;;;;;34.4;21.1;;;;;;;6.2;100.0;100480;;;;
2022/03/30 01:58:01;;;;;;;34.4;21.1;;;;;;;6.2;100.0;100480;;;;
2022/03/30 01:59:00;;;;;;;34.4;21.1;;;;;;;6.1;100.0;100480;;;;
2022/03/30 02:00:03;;;;;;;34.4;21.1;;;;;;;6.1;100.0;100480;;;;
2022/03/30 02:01:03;;;;;;;34.4;21.1;;;;;;;6.2;100.0;100480;;;;
2022/03/30 02:02:01;;;;;;;34.4;21.1;;;;;;;6.2;100.0;100480;;;;
2022/03/30 02:03:00;;;;;;;34.4;21.1;;;;;;;6.1;100.0;100480;;;;
2022/03/30 02:04:00;;;;;;;34.4;21.1;;;;;;;6.1;100.0;100480;;;;
2022/03/30 02:05:00;;;;;;;34.4;21.1;;;;;;;6.0;100.0;100480;;;;
2022/03/30 02:06:00;;;;;;;34.4;21.1;;;;;;;6.0;100.0;100480;;;;
2022/03/30 02:07:02;;;;;;;34.4;21.1;;;;;;;6.1;100.0;100470;;;;
2022/03/30 02:08:00;;;;;;;34.4;21.1;;;;;;;6.1;100.0;100470;;;;
2022/03/30 02:09:00;;;;;;;34.4;21.1;;;;;;;6.1;100.0;100470;;;;
2022/03/30 02:10:00;;;;;;;34.4;21.1;;;;;;;6.1;100.0;100470;;;;
2022/03/30 02:11:00;;;;;;;34.4;21.1;;;;;;;6.0;100.0;100470;;;;
2022/03/30 02:12:00;;;;;;;34.4;21.1;;;;;;;6.0;100.0;100470;;;;
2022/03/30 02:13:00;;;;;;;34.4;21.1;;;;;;;6.1;100.0;100470;;;;
2022/03/30 02:14:00;;;;;;;29.1;21.2;;;;;;;6.1;100.0;100470;;;;
2022/03/30 02:15:00;;;;;;;29.1;21.2;;;;;;;6.1;100.0;100470;;;;
2022/03/30 02:16:00;;;;;;;29.1;21.2;;;;;;;6.1;100.0;100470;;;;
2022/03/30 02:17:00;;;;;;;29.1;21.2;;;;;;;6.1;100.0;100460;;;;
2022/03/30 02:18:00;;;;;;;29.1;21.2;;;;;;;6.1;100.0;100460;;;;
2022/03/30 02:19:00;;;;;;;29.1;21.2;;;;;;;6.1;100.0;100460;;;;
2022/03/30 02:20:00;;;;;;;29.1;21.2;;;;;;;6.1;100.0;100460;;;;
2022/03/30 02:21:00;;;;;;;29.1;21.2;;;;;;;6.1;100.0;100460;;;;
2022/03/30 02:22:00;;;;;;;29.1;21.2;;;;;;;6.1;100.0;100460;;;;
2022/03/30 02:23:00;;;;;;;29.1;21.2;;;;;;;6.1;100.0;100460;;;;
2022/03/30 02:24:00;;;;;;;29.1;21.2;;;;;;;6.1;100.0;100460;;;;
2022/03/30 02:25:00;;;;;;;29.1;21.2;;;;;;;6.0;100.0;100450;;;;
2022/03/30 02:26:00;;;;;;;29.1;21.2;;;;;;;6.0;100.0;100450;;;;
2022/03/30 02:27:00;;;;;;;29.1;21.2;;;;;;;6.0;100.0;100450;;;;
2022/03/30 02:28:00;;;;;;;29.1;21.2;;;;;;;6.0;100.0;100450;;;;
2022/03/30 02:29:00;;;;;;;29.1;21.2;;;;;;;5.9;100.0;100440;;;;
2022/03/30 02:30:00;;;;;;;29.1;21.2;;;;;;;5.9;100.0;100440;;;;
2022/03/30 02:31:00;;;;;;;29.1;21.2;;;;;;;5.9;100.0;100440;;;;
2022/03/30 02:32:01;;;;;;;29.1;21.2;;;;;;;5.9;100.0;100440;;;;
2022/03/30 02:33:01;;;;;;;29.1;21.2;;;;;;;5.8;100.0;100440;;;;
2022/03/30 02:34:00;;;;;;;26.6;20.9;;;;;;;5.8;100.0;100440;;;;
2022/03/30 02:35:00;;;;;;;26.6;20.9;;;;;;;5.9;100.0;100430;;;;
2022/03/30 02:36:00;;;;;;;26.6;20.9;;;;;;;5.9;100.0;100430;;;;
2022/03/30 02:37:00;;;;;;;26.6;20.9;;;;;;;6.0;100.0;100430;;;;
2022/03/30 02:38:00;;;;;;;26.6;20.9;;;;;;;6.0;100.0;100430;;;;
2022/03/30 02:39:00;;;;;;;26.6;20.9;;;;;;;6.0;100.0;100430;;;;
2022/03/30 02:40:00;;;;;;;26.6;20.9;;;;;;;6.0;100.0;100430;;;;
2022/03/30 02:41:01;;;;;;;26.6;20.9;;;;;;;5.9;100.0;100430;;;;
2022/03/30 02:42:01;;;;;;;26.6;20.9;;;;;;;5.9;100.0;100430;;;;
2022/03/30 02:43:00;;;;;;;26.6;20.9;;;;;;;5.8;100.0;100420;;;;
2022/03/30 02:44:00;;;;;;;26.6;20.9;;;;;;;5.8;100.0;100420;;;;
2022/03/30 02:45:00;;;;;;;26.6;20.9;;;;;;;5.7;100.0;100420;;;;
2022/03/30 02:46:00;;;;;;;26.6;20.9;;;;;;;5.7;100.0;100420;;;;
2022/03/30 02:47:01;;;;;;;26.6;20.9;;;;;;;5.8;100.0;100420;;;;
2022/03/30 02:49:00;;;;;;;26.6;20.9;;;;;;;5.8;100.0;100420;;;;
2022/03/30 02:50:00;;;;;;;26.6;20.9;;;;;;;5.8;100.0;100420;;;;
2022/03/30 02:51:02;;;;;;;26.6;20.9;;;;;;;5.8;100.0;100420;;;;
2022/03/30 02:52:00;;;;;;;26.6;20.9;;;;;;;5.8;100.0;100420;;;;
2022/03/30 02:53:00;;;;;;;26.6;20.9;;;;;;;5.8;100.0;100420;;;;
2022/03/30 02:54:00;;;;;;;31.1;21.2;;;;;;;5.8;100.0;100420;;;;
2022/03/30 02:55:00;;;;;;;31.1;21.2;;;;;;;5.9;100.0;100420;;;;
2022/03/30 02:56:00;;;;;;;31.1;21.2;;;;;;;5.9;100.0;100420;;;;
2022/03/30 02:57:00;;;;;;;31.1;21.2;;;;;;;5.8;100.0;100420;;;;
2022/03/30 02:58:00;;;;;;;31.1;21.2;;;;;;;5.8;100.0;100420;;;;
2022/03/30 02:59:00;;;;;;;31.1;21.2;;;;;;;5.8;100.0;100420;;;;
2022/03/30 03:00:00;;;;;;;31.1;21.2;;;;;;;5.8;100.0;100420;;;;
2022/03/30 03:01:00;;;;;;;31.1;21.2;;;;;;;5.8;100.0;100420;;;;
2022/03/30 03:02:00;;;;;;;31.1;21.2;;;;;;;5.8;100.0;100420;;;;
2022/03/30 03:03:01;;;;;;;31.1;21.2;;;;;;;5.8;100.0;100420;;;;
2022/03/30 03:04:00;;;;;;;31.1;21.2;;;;;;;5.8;100.0;100420;;;;
2022/03/30 03:05:00;;;;;;;31.1;21.2;;;;;;;5.8;100.0;100410;;;;
2022/03/30 03:06:00;;;;;;;31.1;21.2;;;;;;;5.8;100.0;100410;;;;
2022/03/30 03:07:00;;;;;;;31.1;21.2;;;;;;;5.7;100.0;100420;;;;
2022/03/30 03:08:02;;;;;;;31.1;21.2;;;;;;;5.7;100.0;100420;;;;
2022/03/30 03:09:00;;;;;;;31.1;21.2;;;;;;;5.9;100.0;100410;;;;
2022/03/30 03:10:00;;;;;;;31.1;21.2;;;;;;;5.9;100.0;100410;;;;
2022/03/30 03:11:00;;;;;;;31.1;21.2;;;;;;;5.9;100.0;100410;;;;
2022/03/30 03:12:00;;;;;;;31.1;21.2;;;;;;;5.9;100.0;100410;;;;
2022/03/30 03:13:03;;;;;;;29.5;20.8;;;;;;;5.8;100.0;100410;;;;
2022/03/30 03:14:05;;;;;;;29.5;20.8;;;;;;;5.8;100.0;100410;;;;
2022/03/30 03:15:00;;;;;;;29.5;20.8;;;;;;;5.8;100.0;100410;;;;
2022/03/30 03:16:00;;;;;;;29.5;20.8;;;;;;;5.8;100.0;100410;;;;
2022/03/30 03:17:00;;;;;;;29.5;20.8;;;;;;;5.8;100.0;100400;;;;
2022/03/30 03:18:01;;;;;;;29.5;20.8;;;;;;;5.8;100.0;100400;;;;
2022/03/30 03:19:00;;;;;;;29.5;20.8;;;;;;;5.9;100.0;100400;;;;
2022/03/30 03:20:00;;;;;;;29.5;20.8;;;;;;;5.9;100.0;100400;;;;
2022/03/30 03:21:00;;;;;;;29.5;20.8;;;;;;;5.8;100.0;100400;;;;
2022/03/30 03:22:00;;;;;;;29.5;20.8;;;;;;;5.8;100.0;100400;;;;
2022/03/30 03:23:02;;;;;;;29.5;20.8;;;;;;;5.7;100.0;100400;;;;
2022/03/30 03:24:00;;;;;;;29.5;20.8;;;;;;;5.7;100.0;100400;;;;
2022/03/30 03:25:00;;;;;;;29.5;20.8;;;;;;;5.6;100.0;100400;;;;
2022/03/30 03:26:00;;;;;;;29.5;20.8;;;;;;;5.6;100.0;100400;;;;
2022/03/30 03:27:00;;;;;;;29.5;20.8;;;;;;;5.7;100.0;100400;;;;
2022/03/30 03:28:01;;;;;;;29.5;20.8;;;;;;;5.7;100.0;100400;;;;
2022/03/30 03:29:02;;;;;;;29.5;20.8;;;;;;;5.6;100.0;100400;;;;
2022/03/30 03:30:00;;;;;;;29.5;20.8;;;;;;;5.6;100.0;100400;;;;
2022/03/30 03:31:00;;;;;;;29.5;20.8;;;;;;;5.6;100.0;100400;;;;
2022/03/30 03:32:00;;;;;;;29.5;20.8;;;;;;;5.6;100.0;100400;;;;
2022/03/30 03:33:01;;;;;;;29.6;21.0;;;;;;;5.7;100.0;100390;;;;
2022/03/30 03:34:00;;;;;;;29.6;21.0;;;;;;;5.7;100.0;100390;;;;
2022/03/30 03:35:00;;;;;;;29.6;21.0;;;;;;;5.7;100.0;100390;;;;
2022/03/30 03:36:00;;;;;;;29.6;21.0;;;;;;;5.7;100.0;100390;;;;
2022/03/30 03:37:00;;;;;;;29.6;21.0;;;;;;;5.5;100.0;100390;;;;
2022/03/30 03:38:00;;;;;;;29.6;21.0;;;;;;;5.5;100.0;100390;;;;
2022/03/30 03:39:00;;;;;;;29.6;21.0;;;;;;;5.3;100.0;100390;;;;
2022/03/30 03:40:00;;;;;;;29.6;21.0;;;;;;;5.3;100.0;100390;;;;
2022/03/30 03:41:00;;;;;;;29.6;21.0;;;;;;;5.4;100.0;100390;;;;
2022/03/30 03:42:00;;;;;;;29.6;21.0;;;;;;;5.4;100.0;100390;;;;
2022/03/30 03:43:00;;;;;;;29.6;21.0;;;;;;;5.3;100.0;100390;;;;
2022/03/30 03:44:00;;;;;;;29.6;21.0;;;;;;;5.3;100.0;100390;;;;
2022/03/30 03:45:00;;;;;;;29.6;21.0;;;;;;;5.2;100.0;100390;;;;
2022/03/30 03:46:00;;;;;;;29.6;21.0;;;;;;;5.2;100.0;100390;;;;
2022/03/30 03:47:00;;;;;;;29.6;21.0;;;;;;;5.2;100.0;100390;;;;
2022/03/30 03:48:00;;;;;;;29.6;21.0;;;;;;;5.2;100.0;100390;;;;
2022/03/30 03:49:00;;;;;;;29.6;21.0;;;;;;;5.3;100.0;100390;;;;
2022/03/30 03:50:00;;;;;;;29.6;21.0;;;;;;;5.3;100.0;100390;;;;
2022/03/30 03:51:00;;;;;;;29.6;21.0;;;;;;;5.3;100.0;100380;;;;
2022/03/30 03:52:00;;;;;;;29.6;21.0;;;;;;;5.3;100.0;100380;;;;
2022/03/30 03:53:01;;;;;;;34.0;22.5;;;;;;;5.2;100.0;100380;;;;
2022/03/30 03:54:00;;;;;;;34.0;22.5;;;;;;;5.2;100.0;100380;;;;
2022/03/30 03:55:00;;;;;;;34.0;22.5;;;;;;;5.3;100.0;100380;;;;
2022/03/30 03:56:00;;;;;;;34.0;22.5;;;;;;;5.3;100.0;100380;;;;
2022/03/30 03:57:00;;;;;;;34.0;22.5;;;;;;;5.1;100.0;100380;;;;
2022/03/30 03:58:00;;;;;;;34.0;22.5;;;;;;;5.1;100.0;100380;;;;
2022/03/30 03:59:00;;;;;;;34.0;22.5;;;;;;;5.1;100.0;100390;;;;
2022/03/30 04:00:00;;;;;;;34.0;22.5;;;;;;;5.1;100.0;100390;;;;
2022/03/30 04:01:00;;;;;;;34.0;22.5;;;;;;;5.0;100.0;100380;;;;
2022/03/30 04:02:00;;;;;;;34.0;22.5;;;;;;;5.0;100.0;100380;;;;
2022/03/30 04:03:00;;;;;;;34.0;22.5;;;;;;;5.1;100.0;100380;;;;
2022/03/30 04:04:05;;;;;;;34.0;22.5;;;;;;;5.1;100.0;100380;;;;
2022/03/30 04:05:00;;;;;;;34.0;22.5;;;;;;;5.1;100.0;100380;;;;
2022/03/30 04:06:00;;;;;;;34.0;22.5;;;;;;;5.1;100.0;100380;;;;
2022/03/30 04:07:00;;;;;;;34.0;22.5;;;;;;;5.0;100.0;100380;;;;
2022/03/30 04:08:00;;;;;;;34.0;22.5;;;;;;;5.0;100.0;100380;;;;
2022/03/30 04:09:00;;;;;;;34.0;22.5;;;;;;;4.9;100.0;100380;;;;
2022/03/30 04:10:01;;;;;;;34.0;22.5;;;;;;;4.9;100.0;100380;;;;
2022/03/30 04:11:00;;;;;;;34.0;22.5;;;;;;;4.9;100.0;100370;;;;
2022/03/30 04:12:00;;;;;;;34.0;22.5;;;;;;;4.9;100.0;100370;;;;
2022/03/30 04:13:00;;;;;;;32.9;22.0;;;;;;;4.9;100.0;100370;;;;
2022/03/30 04:14:00;;;;;;;32.9;22.0;;;;;;;4.9;100.0;100370;;;;
2022/03/30 04:15:00;;;;;;;32.9;22.0;;;;;;;5.0;100.0;100370;;;;
2022/03/30 04:16:00;;;;;;;32.9;22.0;;;;;;;5.0;100.0;100370;;;;
2022/03/30 04:17:00;;;;;;;32.9;22.0;;;;;;;4.9;100.0;100370;;;;
2022/03/30 04:18:00;;;;;;;32.9;22.0;;;;;;;4.9;100.0;100370;;;;
2022/03/30 04:19:00;;;;;;;32.9;22.0;;;;;;;4.8;100.0;100370;;;;
2022/03/30 04:20:00;;;;;;;32.9;22.0;;;;;;;4.8;100.0;100370;;;;
2022/03/30 04:21:00;;;;;;;32.9;22.0;;;;;;;4.9;100.0;100370;;;;
2022/03/30 04:22:01;;;;;;;32.9;22.0;;;;;;;4.9;100.0;100370;;;;
2022/03/30 04:23:00;;;;;;;32.9;22.0;;;;;;;4.8;100.0;100370;;;;
2022/03/30 04:24:00;;;;;;;32.9;22.0;;;;;;;4.8;100.0;100370;;;;
2022/03/30 04:25:00;;;;;;;32.9;22.0;;;;;;;4.9;100.0;100370;;;;
2022/03/30 04:26:00;;;;;;;32.9;22.0;;;;;;;4.9;100.0;100370;;;;
2022/03/30 04:27:00;;;;;;;32.9;22.0;;;;;;;4.9;100.0;100380;;;;
2022/03/30 04:28:00;;;;;;;32.9;22.0;;;;;;;4.9;100.0;100380;;;;
2022/03/30 04:29:00;;;;;;;32.9;22.0;;;;;;;4.9;100.0;100370;;;;
2022/03/30 04:30:00;;;;;;;32.9;22.0;;;;;;;4.9;100.0;100370;;;;
2022/03/30 04:31:00;;;;;;;32.9;22.0;;;;;;;4.8;100.0;100370;;;;
2022/03/30 04:32:00;;;;;;;32.9;22.0;;;;;;;4.8;100.0;100370;;;;
2022/03/30 04:33:00;;;;;;;33.3;22.2;;;;;;;4.9;100.0;100370;;;;
2022/03/30 04:34:00;;;;;;;33.3;22.2;;;;;;;4.9;100.0;100370;;;;
2022/03/30 04:35:00;;;;;;;33.3;22.2;;;;;;;4.9;100.0;100370;;;;
2022/03/30 04:36:00;;;;;;;33.3;22.2;;;;;;;4.9;100.0;100370;;;;
2022/03/30 04:37:00;;;;;;;33.3;22.2;;;;;;;4.9;100.0;100370;;;;
2022/03/30 04:38:00;;;;;;;33.3;22.2;;;;;;;4.9;100.0;100370;;;;
2022/03/30 04:39:00;;;;;;;33.3;22.2;;;;;;;4.8;100.0;100370;;;;
2022/03/30 04:40:00;;;;;;;33.3;22.2;;;;;;;4.8;100.0;100370;;;;
2022/03/30 04:41:00;;;;;;;33.3;22.2;;;;;;;4.8;100.0;100370;;;;
2022/03/30 04:42:00;;;;;;;33.3;22.2;;;;;;;4.8;100.0;100370;;;;
2022/03/30 04:43:00;;;;;;;33.3;22.2;;;;;;;4.8;100.0;100370;;;;
2022/03/30 04:44:00;;;;;;;33.3;22.2;;;;;;;4.8;100.0;100370;;;;
2022/03/30 04:45:00;;;;;;;33.3;22.2;;;;;;;4.9;100.0;100360;;;;
2022/03/30 04:46:00;;;;;;;33.3;22.2;;;;;;;4.9;100.0;100360;;;;
2022/03/30 04:47:00;;;;;;;33.3;22.2;;;;;;;4.9;100.0;100360;;;;
2022/03/30 04:48:00;;;;;;;33.3;22.2;;;;;;;4.9;100.0;100360;;;;
2022/03/30 04:49:00;;;;;;;33.3;22.2;;;;;;;4.8;100.0;100360;;;;
2022/03/30 04:50:00;;;;;;;33.3;22.2;;;;;;;4.8;100.0;100360;;;;
2022/03/30 04:51:00;;;;;;;33.3;22.2;;;;;;;4.8;100.0;100370;;;;
2022/03/30 04:52:00;;;;;;;33.3;22.2;;;;;;;4.8;100.0;100370;;;;
2022/03/30 04:53:00;;;;;;;32.1;22.3;;;;;;;4.8;100.0;100370;;;;
2022/03/30 04:54:00;;;;;;;32.1;22.3;;;;;;;4.8;100.0;100370;;;;
2022/03/30 04:55:00;;;;;;;32.1;22.3;;;;;;;4.8;100.0;100370;;;;
2022/03/30 04:56:00;;;;;;;32.1;22.3;;;;;;;4.8;100.0;100370;;;;
2022/03/30 04:57:00;;;;;;;32.1;22.3;;;;;;;4.7;100.0;100370;;;;
2022/03/30 04:58:00;;;;;;;32.1;22.3;;;;;;;4.7;100.0;100370;;;;
2022/03/30 04:59:00;;;;;;;32.1;22.3;;;;;;;4.7;100.0;100370;;;;
2022/03/30 05:00:00;;;;;;;32.1;22.3;;;;;;;4.7;100.0;100370;;;;
2022/03/30 05:01:00;;;;;;;32.1;22.3;;;;;;;4.8;100.0;100370;;;;
2022/03/30 05:02:00;;;;;;;32.1;22.3;;;;;;;4.8;100.0;100370;;;;
2022/03/30 05:03:00;;;;;;;32.1;22.3;;;;;;;4.8;100.0;100370;;;;
2022/03/30 05:04:00;;;;;;;32.1;22.3;;;;;;;4.8;100.0;100370;;;;
2022/03/30 05:05:00;;;;;;;32.1;22.3;;;;;;;4.7;100.0;100370;;;;
2022/03/30 05:06:03;;;;;;;32.1;22.3;;;;;;;4.7;100.0;100370;;;;
2022/03/30 05:07:00;;;;;;;32.1;22.3;;;;;;;4.8;100.0;100380;;;;
2022/03/30 05:08:00;;;;;;;32.1;22.3;;;;;;;4.8;100.0;100380;;;;
2022/03/30 05:09:00;;;;;;;32.1;22.3;;;;;;;4.8;100.0;100380;;;;
2022/03/30 05:10:00;;;;;;;32.1;22.3;;;;;;;4.8;100.0;100380;;;;
2022/03/30 05:11:00;;;;;;;32.1;22.3;;;;;;;4.8;100.0;100380;;;;
2022/03/30 05:12:00;;;;;;;32.1;22.3;;;;;;;4.8;100.0;100380;;;;
2022/03/30 05:13:00;;;;;;;32.6;21.9;;;;;;;4.7;100.0;100380;;;;
2022/03/30 05:14:00;;;;;;;32.6;21.9;;;;;;;4.7;100.0;100380;;;;
2022/03/30 05:15:00;;;;;;;32.6;21.9;;;;;;;4.7;100.0;100380;;;;
2022/03/30 05:16:00;;;;;;;32.6;21.9;;;;;;;4.7;100.0;100380;;;;
2022/03/30 05:17:00;;;;;;;32.6;21.9;;;;;;;4.6;100.0;100380;;;;
2022/03/30 05:18:00;;;;;;;32.6;21.9;;;;;;;4.6;100.0;100380;;;;
2022/03/30 05:19:01;;;;;;;32.6;21.9;;;;;;;4.6;100.0;100370;;;;
2022/03/30 05:20:00;;;;;;;32.6;21.9;;;;;;;4.6;100.0;100370;;;;
2022/03/30 05:21:00;;;;;;;32.6;21.9;;;;;;;4.4;100.0;100370;;;;
2022/03/30 05:22:00;;;;;;;32.6;21.9;;;;;;;4.4;100.0;100370;;;;
2022/03/30 05:23:00;;;;;;;32.6;21.9;;;;;;;4.2;100.0;100370;;;;
2022/03/30 05:24:00;;;;;;;32.6;21.9;;;;;;;4.2;100.0;100370;;;;
2022/03/30 05:25:00;;;;;;;32.6;21.9;;;;;;;4.3;100.0;100370;;;;
2022/03/30 05:26:00;;;;;;;32.6;21.9;;;;;;;4.3;100.0;100370;;;;
2022/03/30 05:27:00;;;;;;;32.6;21.9;;;;;;;4.3;100.0;100370;;;;
2022/03/30 05:28:00;;;;;;;32.6;21.9;;;;;;;4.3;100.0;100370;;;;
2022/03/30 05:29:00;;;;;;;32.6;21.9;;;;;;;4.3;100.0;100360;;;;
2022/03/30 05:30:02;;;;;;;32.6;21.9;;;;;;;4.3;100.0;100360;;;;
2022/03/30 05:31:00;;;;;;;32.6;21.9;;;;;;;4.3;100.0;100360;;;;
2022/03/30 05:32:10;;;;;;;32.6;21.9;;;;;;;4.3;100.0;100360;;;;
2022/03/30 05:33:01;;;;;;;31.8;22.2;;;;;;;4.2;100.0;100360;;;;
2022/03/30 05:34:00;;;;;;;31.8;22.2;;;;;;;4.2;100.0;100360;;;;
2022/03/30 05:35:00;;;;;;;31.8;22.2;;;;;;;4.2;100.0;100360;;;;
2022/03/30 05:36:00;;;;;;;31.8;22.2;;;;;;;4.2;100.0;100360;;;;
2022/03/30 05:37:00;;;;;;;31.8;22.2;;;;;;;4.2;100.0;100350;;;;
2022/03/30 05:38:00;;;;;;;31.8;22.2;;;;;;;4.2;100.0;100350;;;;
2022/03/30 05:39:00;;;;;;;31.8;22.2;;;;;;;4.1;100.0;100360;;;;
2022/03/30 05:40:00;;;;;;;31.8;22.2;;;;;;;4.1;100.0;100360;;;;
2022/03/30 05:41:02;;;;;;;31.8;22.2;;;;;;;4.1;100.0;100360;;;;
2022/03/30 05:42:00;;;;;;;31.8;22.2;;;;;;;4.1;100.0;100360;;;;
2022/03/30 05:43:00;;;;;;;31.8;22.2;;;;;;;4.1;100.0;100360;;;;
2022/03/30 05:44:00;;;;;;;31.8;22.2;;;;;;;4.1;100.0;100360;;;;
2022/03/30 05:45:00;;;;;;;31.8;22.2;;;;;;;4.0;100.0;100360;;;;
2022/03/30 05:46:00;;;;;;;31.8;22.2;;;;;;;4.0;100.0;100360;;;;
2022/03/30 05:47:00;;;;;;;31.8;22.2;;;;;;;4.1;100.0;100360;;;;
2022/03/30 05:48:00;;;;;;;31.8;22.2;;;;;;;4.1;100.0;100360;;;;
2022/03/30 05:49:00;;;;;;;31.8;22.2;;;;;;;4.2;100.0;100360;;;;
2022/03/30 05:50:01;;;;;;;31.8;22.2;;;;;;;4.2;100.0;100360;;;;
2022/03/30 05:51:00;;;;;;;31.8;22.2;;;;;;;4.1;100.0;100350;;;;
2022/03/30 05:52:00;;;;;;;31.8;22.2;;;;;;;4.1;100.0;100350;;;;
2022/03/30 05:53:00;;;;;;;31.5;22.1;;;;;;;4.2;100.0;100360;;;;
2022/03/30 05:54:00;;;;;;;31.5;22.1;;;;;;;4.2;100.0;100360;;;;
2022/03/30 05:55:00;;;;;;;31.5;22.1;;;;;;;4.3;100.0;100360;;;;
2022/03/30 05:56:00;;;;;;;31.5;22.1;;;;;;;4.3;100.0;100360;;;;
2022/03/30 05:57:00;;;;;;;31.5;22.1;;;;;;;4.2;100.0;100360;;;;
2022/03/30 05:58:00;;;;;;;31.5;22.1;;;;;;;4.2;100.0;100360;;;;
2022/03/30 05:59:00;;;;;;;31.5;22.1;;;;;;;4.2;100.0;100350;;;;
2022/03/30 06:00:00;;;;;;;31.5;22.1;;;;;;;4.2;100.0;100350;;;;
2022/03/30 06:01:00;;;;;;;31.5;22.1;;;;;;;4.2;100.0;100360;;;;
2022/03/30 06:02:01;;;;;;;31.5;22.1;;;;;;;4.2;100.0;100360;;;;
2022/03/30 06:03:00;;;;;;;31.5;22.1;;;;;;;4.2;100.0;100360;;;;
2022/03/30 06:04:00;;;;;;;31.5;22.1;;;;;;;4.2;100.0;100360;;;;
2022/03/30 06:05:00;;;;;;;31.5;22.1;;;;;;;4.2;100.0;100360;;;;
2022/03/30 06:06:01;;;;;;;31.5;22.1;;;;;;;4.2;100.0;100360;;;;
2022/03/30 06:07:00;;;;;;;31.5;22.1;;;;;;;4.3;100.0;100360;;;;
2022/03/30 06:08:00;;;;;;;31.5;22.1;;;;;;;4.3;100.0;100360;;;;
2022/03/30 06:09:01;;;;;;;31.5;22.1;;;;;;;4.5;100.0;100350;;;;
2022/03/30 06:10:00;;;;;;;31.5;22.1;;;;;;;4.5;100.0;100350;;;;
2022/03/30 06:11:00;;;;;;;31.5;22.1;;;;;;;4.4;100.0;100360;;;;
2022/03/30 06:12:01;;;;;;;31.5;22.1;;;;;;;4.4;100.0;100360;;;;
2022/03/30 06:13:01;;;;;;;29.8;21.8;;;;;;;4.5;100.0;100360;;;;
2022/03/30 06:14:00;;;;;;;29.8;21.8;;;;;;;4.5;100.0;100360;;;;
2022/03/30 06:15:07;;;;;;;29.8;21.8;;;;;;;4.4;100.0;100360;;;;
2022/03/30 06:16:00;;;;;;;29.8;21.8;;;;;;;4.4;100.0;100360;;;;
2022/03/30 06:17:03;;;;;;;29.8;21.8;;;;;;;4.3;100.0;100360;;;;
2022/03/30 06:18:00;;;;;;;29.8;21.8;;;;;;;4.3;100.0;100360;;;;
2022/03/30 06:19:00;;;;;;;29.8;21.8;;;;;;;4.3;100.0;100360;;;;
2022/03/30 06:20:03;;;;;;;29.8;21.8;;;;;;;4.3;100.0;100360;;;;
2022/03/30 06:21:00;;;;;;;29.8;21.8;;;;;;;4.4;100.0;100360;;;;